Sylvan Beach, Texas
Current Conditions -  °F | °C
As of 11:50 PM on Wednesday 22 Oct 2014 (Local Time) from KEFD Reporting Station
Few Clouds Few Clouds  
Wind Chill: 21°   Ceiling: Unl
Heat Index: 21°   Visibility: 10mi
Dew Point: 18°   Wind: 0mph
Humidity: 83%   Direction: NA
Pressure: 30.1"   Gusts: NA
Location:  29.6785°N, 95.0483°W
Report Text: KEFD 230450Z 00000KT 10SM FEW040 21/18 A3010
Loading
Personal Weather Stations






























Interactive Weather Map
Tropical Storm Tracking
New forecast layout! Learn more

10-Day Weather Forecast

Advertisements
Track Severe Weather on mobile